Anaheim, California
Current Conditions -  °F | °C
As of 8:53 AM on Thursday 27 Nov 2014 (Local Time) from KFUL Reporting Station
Clear Clear  
Wind Chill: 69°   Ceiling: Unl
Heat Index: 69°   Visibility: 10mi
Dew Point: 30°   Wind: 0mph
Humidity: 23%   Direction: NA
Pressure: 30.1"   Gusts: NA
Location:  33.83°N, 117.91°W
Report Text: KFUL 271653Z 00000KT 10SM CLR 21/M01 A3010 RMK AO2 SLP190 T02061011
Loading
Personal Weather Stations






























Interactive Weather Map New forecast layout! Learn more

10-Day Weather Forecast

Advertisements
Track Severe Weather on mobile